Anna, Texas
Current Conditions -  °F | °C
As of 4:53 PM on Monday 20 Oct 2014 (Local Time) from KTKI Reporting Station
Few Clouds Few Clouds  
Wind Chill: 79°   Ceiling: Unl
Heat Index: 80°   Visibility: 10mi
Dew Point: 60°   Wind: 6mph
Humidity: 52%   Direction: 120°ESE
Pressure: 30.01"   Gusts: NA
Location:  33.35°N, 96.55°W
Report Text: KTKI 202153Z 12005KT 10SM FEW045 26/16 A3001 RMK AO2 SLP164 T02610156
Loading
Personal Weather Stations






























Interactive Weather Map
Tropical Storm Tracking
New forecast layout! Learn more

10-Day Weather Forecast

Advertisements
Track Severe Weather on mobile